Time;durP1;ratioP1;P1;durP2;ratioP2;P2;SDS_P1;SDS_P2;PMS_P1;PMS_P2;Temp;Humidity;BMP_temperature;BMP_pressure;BME280_temperature;BME280_humidity;BME280_pressure;Samples;Min_cycle;Max_cycle;Signal;HPM_P1;HPM_P2
2022/03/21 00:00:23;;;;;;;38.58;24.25;;;;;;;;;;4958091;28;20042;-93
2022/03/21 00:03:13;;;;;;;36.53;24.85;;;;;;;;;;4952441;28;20043;-93
2022/03/21 00:05:52;;;;;;;;;;;;;;;;;;;;;
2022/03/21 00:08:24;;;;;;;32.80;22.63;;;;;;;;;;4976341;28;20023;-93
2022/03/21 00:14:08;;;;;;;;;;;;;;;;;;;;;
2022/03/21 01:30:09;;;;;;;28.67;18.00;;;;;;;;;;5916697;23;20047;-92
2022/03/21 02:01:44;;;;;;;;;;;;;;;;;;;;;
2022/03/21 02:07:38;;;;;;;;;;;;;;;;;;;;;
2022/03/21 02:13:51;;;;;;;;;;;;;;;;;;;;;
2022/03/21 02:16:54;;;;;;;;;;;;;;;;;;;;;
2022/03/21 02:19:42;;;;;;;;;;;;;;;;;;;;;
2022/03/21 02:58:44;;;;;;;32.10;20.70;;;;;;;;;;4982804;28;20050;-92
2022/03/21 03:01:17;;;;;;;30.27;18.67;;;;;;;;;;4949599;28;20090;-94
2022/03/21 03:03:44;;;;;;;30.00;19.65;;;;;;;;;;4970635;28;20049;-93
2022/03/21 03:11:58;;;;;;;31.42;19.30;;;;;;;;;;5299873;23;20058;-96
2022/03/21 03:14:27;;;;;;;34.20;20.10;;;;;;;;;;4993676;28;20101;-92
2022/03/21 03:17:01;;;;;;;28.98;19.67;;;;;;;;;;5047329;28;20041;-92
2022/03/21 03:23:30;;;;;;;33.03;18.67;;;;;;;;;;4952413;29;20046;-95
2022/03/21 03:26:13;;;;;;;31.05;18.83;;;;;;;;;;4950945;29;20047;-94
2022/03/21 03:31:49;;;;;;;28.13;18.27;;;;;;;;;;4936132;29;20076;-95
2022/03/21 03:57:10;;;;;;;27.80;17.83;;;;;;;;;;5852597;22;20088;-91
2022/03/21 03:59:38;;;;;;;29.30;18.58;;;;;;;;;;4922862;29;20095;-94
2022/03/21 04:02:15;;;;;;;29.23;19.52;;;;;;;;;;4961373;28;20042;-96
2022/03/21 04:04:49;;;;;;;29.08;18.50;;;;;;;;;;5018405;28;20037;-94
2022/03/21 04:16:19;;;;;;;25.92;17.40;;;;;;;;;;5074315;22;20072;-95
2022/03/21 04:25:58;;;;;;;25.80;15.95;;;;;;;;;;4943692;28;20048;-94
2022/03/21 04:28:38;;;;;;;26.98;17.35;;;;;;;;;;5009880;28;20093;-96
2022/03/21 04:38:27;;;;;;;;;;;;;;;;;;;;;
2022/03/21 04:40:56;;;;;;;27.73;17.08;;;;;;;;;;4951394;29;20043;-94
2022/03/21 04:50:34;;;;;;;25.35;15.73;;;;;;;;;;4862781;29;20048;-94
2022/03/21 04:53:03;;;;;;;22.63;15.30;;;;;;;;;;4912850;29;20047;-95
2022/03/21 05:21:04;;;;;;;22.10;9.38;;;;;;;;;;4931285;29;20044;-93
2022/03/21 05:32:42;;;;;;;39.03;12.18;;;;;;;;;;4969987;28;20047;-92
2022/03/21 05:41:28;;;;;;;57.95;8.23;;;;;;;;;;5685746;23;20053;-93
2022/03/21 05:44:07;;;;;;;8.68;5.55;;;;;;;;;;4993511;28;20097;-92
2022/03/21 05:49:36;;;;;;;20.92;12.45;;;;;;;;;;5492176;22;20025;-93
2022/03/21 06:36:38;;;;;;;;;;;;;;;;;;;;;
2022/03/21 09:21:40;;;;;;;25.63;18.80;;;;;;;;;;6118239;23;20029;31
2022/03/21 09:29:33;;;;;;;26.65;18.77;;;;;;;;;;5271496;23;20054;-91
2022/03/21 09:31:59;;;;;;;25.77;17.67;;;;;;;;;;4960472;28;20163;-92
2022/03/21 09:34:39;;;;;;;25.55;17.55;;;;;;;;;;4976974;28;20049;-94
2022/03/21 09:37:06;;;;;;;22.02;16.77;;;;;;;;;;4968058;28;20096;-89
2022/03/21 09:39:37;;;;;;;24.10;16.17;;;;;;;;;;4961415;28;20188;-93
2022/03/21 09:42:12;;;;;;;25.83;17.40;;;;;;;;;;4961724;28;20038;-91
2022/03/21 09:44:41;;;;;;;26.27;17.30;;;;;;;;;;4962188;28;20393;-93
2022/03/21 09:49:58;;;;;;;25.45;17.67;;;;;;;;;;4976472;28;20078;-93
2022/03/21 09:52:27;;;;;;;23.73;17.83;;;;;;;;;;4976627;28;20153;-93
2022/03/21 09:54:55;;;;;;;24.27;18.13;;;;;;;;;;4976647;28;20088;-92
2022/03/21 09:57:21;;;;;;;26.95;18.38;;;;;;;;;;4976124;28;20568;-93
2022/03/21 09:59:49;;;;;;;29.45;18.58;;;;;;;;;;4976421;28;20046;-93
2022/03/21 10:02:24;;;;;;;29.63;18.63;;;;;;;;;;4960466;28;20089;-93
2022/03/21 10:04:50;;;;;;;;;;;;;;;;;;4976895;28;20085;-93
2022/03/21 10:07:16;;;;;;;;;;;;;;;;;;4963024;28;19937;-92
2022/03/21 10:10:04;;;;;;;28.75;19.27;;;;;;;;;;4961690;28;20268;-92
2022/03/21 10:12:31;;;;;;;26.33;18.35;;;;;;;;;;4975158;28;20042;-93
2022/03/21 10:14:59;;;;;;;28.23;20.08;;;;;;;;;;4976054;28;20053;-92
2022/03/21 10:17:25;;;;;;;27.95;19.88;;;;;;;;;;4976374;28;20054;-94
2022/03/21 10:19:54;;;;;;;35.28;21.55;;;;;;;;;;4976102;28;20038;-92
2022/03/21 10:22:21;;;;;;;30.90;20.70;;;;;;;;;;4960189;28;20046;-91
2022/03/21 10:24:48;;;;;;;32.20;21.40;;;;;;;;;;4976236;28;20169;-90
2022/03/21 10:27:36;;;;;;;35.45;22.77;;;;;;;;;;4976178;28;20042;-94
2022/03/21 10:30:11;;;;;;;28.13;19.60;;;;;;;;;;4976121;28;20105;-93
2022/03/21 10:32:42;;;;;;;29.65;19.95;;;;;;;;;;4976841;28;20043;-92
2022/03/21 10:35:15;;;;;;;30.40;20.52;;;;;;;;;;4959932;28;20046;-96
2022/03/21 10:37:58;;;;;;;29.27;21.17;;;;;;;;;;4975937;28;20042;-93
2022/03/21 10:40:35;;;;;;;29.20;20.52;;;;;;;;;;4979065;28;20050;-95
2022/03/21 10:43:03;;;;;;;32.92;21.73;;;;;;;;;;4980771;28;20073;-93
2022/03/21 10:45:41;;;;;;;32.58;21.65;;;;;;;;;;4979996;28;20061;-92
2022/03/21 10:48:10;;;;;;;29.48;20.67;;;;;;;;;;4980029;28;20050;-91
2022/03/21 10:50:39;;;;;;;28.40;21.00;;;;;;;;;;4963087;28;20076;-93
2022/03/21 10:53:11;;;;;;;26.67;19.85;;;;;;;;;;4963588;28;20043;-92
2022/03/21 10:55:40;;;;;;;28.10;20.30;;;;;;;;;;4979812;28;20031;-94
2022/03/21 10:58:08;;;;;;;28.83;20.52;;;;;;;;;;4979640;28;20040;-93
2022/03/21 11:00:42;;;;;;;29.42;19.30;;;;;;;;;;4963144;28;20034;-93
2022/03/21 11:03:12;;;;;;;25.90;18.20;;;;;;;;;;4963765;28;20065;-91
2022/03/21 11:05:40;;;;;;;27.50;18.55;;;;;;;;;;4979491;28;20240;-94
2022/03/21 11:08:09;;;;;;;27.38;20.33;;;;;;;;;;4979940;28;20047;-92
2022/03/21 11:10:41;;;;;;;28.25;21.10;;;;;;;;;;4979840;28;20064;-93
2022/03/21 11:13:08;;;;;;;26.92;18.15;;;;;;;;;;4963245;28;20045;-94
2022/03/21 11:15:40;;;;;;;32.80;19.70;;;;;;;;;;4962692;28;20191;-93
2022/03/21 11:18:06;;;;;;;28.33;18.80;;;;;;;;;;4947601;28;20042;-93
2022/03/21 11:20:32;;;;;;;29.73;19.95;;;;;;;;;;4963118;28;20128;-93
2022/03/21 11:23:02;;;;;;;28.15;19.10;;;;;;;;;;4962881;28;20050;-95
2022/03/21 11:25:31;;;;;;;29.75;19.35;;;;;;;;;;4962924;28;20046;-93
2022/03/21 11:28:15;;;;;;;32.15;20.05;;;;;;;;;;4978519;28;20405;-92
2022/03/21 11:30:59;;;;;;;27.20;18.80;;;;;;;;;;4962745;28;20042;-92
2022/03/21 11:33:39;;;;;;;28.25;19.52;;;;;;;;;;4962835;28;20501;-93
2022/03/21 11:36:09;;;;;;;30.50;21.27;;;;;;;;;;4978847;28;20126;-92
2022/03/21 11:38:45;;;;;;;28.88;19.60;;;;;;;;;;4979451;28;20484;-90
2022/03/21 11:41:21;;;;;;;24.58;18.80;;;;;;;;;;4962943;28;20106;-92
2022/03/21 11:43:48;;;;;;;29.98;18.33;;;;;;;;;;4978567;28;20093;-91
2022/03/21 11:46:20;;;;;;;32.05;20.45;;;;;;;;;;4978515;28;20045;-91
2022/03/21 11:48:47;;;;;;;26.85;18.73;;;;;;;;;;4962831;28;20081;-90
2022/03/21 11:51:19;;;;;;;29.58;19.58;;;;;;;;;;4963217;28;20054;-92
2022/03/21 11:53:54;;;;;;;30.67;19.30;;;;;;;;;;4977646;28;20588;-92
2022/03/21 11:56:20;;;;;;;;;;;;;;;;;;4963832;28;20038;-92
2022/03/21 11:58:46;;;;;;;28.63;18.80;;;;;;;;;;4962688;28;19975;-92
2022/03/21 12:01:24;;;;;;;29.13;19.23;;;;;;;;;;4979832;28;20505;-92
2022/03/21 12:03:50;;;;;;;32.53;20.42;;;;;;;;;;4973951;28;20066;-90
2022/03/21 12:06:39;;;;;;;26.52;19.65;;;;;;;;;;4944615;28;20058;-92
2022/03/21 12:09:13;;;;;;;27.40;18.85;;;;;;;;;;4958602;28;20141;-92
2022/03/21 12:11:39;;;;;;;30.08;19.80;;;;;;;;;;4943053;28;20489;-91
2022/03/21 12:14:28;;;;;;;27.58;18.65;;;;;;;;;;4941872;28;20078;-91
2022/03/21 12:17:01;;;;;;;30.25;19.92;;;;;;;;;;4958676;28;20078;-91
2022/03/21 12:20:01;;;;;;;31.80;20.10;;;;;;;;;;4941757;28;20081;-91
2022/03/21 12:22:28;;;;;;;27.77;19.13;;;;;;;;;;4935883;28;20118;-92
2022/03/21 12:24:55;;;;;;;29.02;19.88;;;;;;;;;;4941604;28;20093;-93
2022/03/21 12:27:38;;;;;;;26.23;19.27;;;;;;;;;;4942391;28;20074;-90
2022/03/21 12:30:30;;;;;;;27.60;19.38;;;;;;;;;;4955493;29;20090;-92
2022/03/21 12:33:14;;;;;;;28.85;19.38;;;;;;;;;;4938834;29;20142;-92
2022/03/21 12:35:44;;;;;;;29.92;20.90;;;;;;;;;;4939111;29;20050;-91
2022/03/21 12:38:17;;;;;;;29.48;19.67;;;;;;;;;;4938594;29;20051;-92
2022/03/21 12:40:54;;;;;;;30.00;19.77;;;;;;;;;;4955436;29;20486;-91
2022/03/21 12:43:24;;;;;;;27.35;19.25;;;;;;;;;;4955276;29;20090;-93
2022/03/21 12:45:56;;;;;;;31.73;19.92;;;;;;;;;;4954924;29;20039;-93
2022/03/21 12:48:23;;;;;;;33.67;20.92;;;;;;;;;;4939007;28;20057;-93
2022/03/21 12:50:49;;;;;;;27.70;20.00;;;;;;;;;;4974309;28;20560;-91
2022/03/21 12:53:18;;;;;;;33.35;20.58;;;;;;;;;;4957688;28;20050;-91
2022/03/21 12:55:47;;;;;;;33.15;19.13;;;;;;;;;;4958848;28;20043;-91
2022/03/21 12:58:14;;;;;;;27.10;20.25;;;;;;;;;;4959209;28;20046;-92
2022/03/21 13:00:44;;;;;;;32.08;20.33;;;;;;;;;;4974766;28;20038;-93
2022/03/21 13:03:11;;;;;;;34.22;20.08;;;;;;;;;;4957274;28;20061;-91
2022/03/21 13:11:29;;;;;;;29.40;19.55;;;;;;;;;;4974408;28;20050;-92
2022/03/21 13:14:03;;;;;;;28.75;20.08;;;;;;;;;;4974496;28;20078;-93
2022/03/21 13:16:30;;;;;;;28.05;19.63;;;;;;;;;;4975450;28;20043;-91
2022/03/21 13:18:58;;;;;;;29.65;19.58;;;;;;;;;;4957420;28;20081;-91
2022/03/21 13:21:24;;;;;;;28.67;19.60;;;;;;;;;;4973845;28;20046;-91
2022/03/21 13:23:52;;;;;;;27.08;15.15;;;;;;;;;;4957683;28;20552;-92
2022/03/21 13:26:22;;;;;;;25.85;17.33;;;;;;;;;;4957548;28;20578;-91
2022/03/21 13:28:51;;;;;;;31.52;19.02;;;;;;;;;;4957383;28;20106;-91
2022/03/21 13:31:19;;;;;;;28.80;18.20;;;;;;;;;;4954425;28;20047;-92
2022/03/21 13:34:05;;;;;;;28.73;18.33;;;;;;;;;;4957234;28;20101;-91
2022/03/21 13:36:34;;;;;;;24.45;16.25;;;;;;;;;;4973756;28;20042;-90
2022/03/21 13:39:14;;;;;;;27.63;16.67;;;;;;;;;;4973476;28;20085;-93
2022/03/21 13:41:55;;;;;;;26.88;16.27;;;;;;;;;;4975146;28;20096;-92
2022/03/21 13:44:22;;;;;;;27.05;16.08;;;;;;;;;;4973465;28;20047;-93
2022/03/21 13:47:01;;;;;;;27.70;16.75;;;;;;;;;;4973226;28;20049;-91
2022/03/21 13:49:42;;;;;;;25.58;16.10;;;;;;;;;;4957262;28;20134;-92
2022/03/21 13:52:08;;;;;;;27.92;16.33;;;;;;;;;;4972766;28;20129;-91
2022/03/21 13:54:52;;;;;;;27.13;16.35;;;;;;;;;;4956819;28;20042;-94
2022/03/21 13:57:18;;;;;;;24.42;15.60;;;;;;;;;;4973020;28;20046;-94
2022/03/21 14:00:07;;;;;;;23.73;15.63;;;;;;;;;;4973241;28;20046;-91
2022/03/21 14:02:41;;;;;;;22.20;15.18;;;;;;;;;;4957182;28;20065;-91
2022/03/21 14:05:13;;;;;;;27.98;17.65;;;;;;;;;;4973271;28;20046;-91
2022/03/21 14:07:42;;;;;;;23.85;14.95;;;;;;;;;;4957089;28;20109;-91
2022/03/21 14:10:14;;;;;;;27.58;16.20;;;;;;;;;;4958358;28;20129;-91
2022/03/21 14:12:41;;;;;;;28.45;17.25;;;;;;;;;;4956677;28;20101;-92
2022/03/21 14:15:07;;;;;;;27.13;17.00;;;;;;;;;;4959525;28;20553;-92
2022/03/21 14:17:33;;;;;;;28.40;16.77;;;;;;;;;;4976767;28;20486;-92
2022/03/21 14:19:59;;;;;;;27.45;16.90;;;;;;;;;;4960880;28;20066;-92
2022/03/21 14:22:25;;;;;;;26.10;16.85;;;;;;;;;;4960554;28;20046;-91
2022/03/21 14:24:53;;;;;;;25.67;16.08;;;;;;;;;;4976616;28;20046;-92
2022/03/21 14:27:20;;;;;;;26.52;15.10;;;;;;;;;;4960636;28;20081;-90
2022/03/21 14:29:46;;;;;;;26.65;16.70;;;;;;;;;;4960067;28;20494;-91
2022/03/21 14:32:12;;;;;;;28.52;17.90;;;;;;;;;;4976445;28;20105;-91
2022/03/21 14:34:38;;;;;;;29.88;17.33;;;;;;;;;;4976457;28;20093;-91
2022/03/21 14:37:04;;;;;;;25.25;17.90;;;;;;;;;;4976437;28;20415;-93
2022/03/21 14:39:30;;;;;;;30.00;17.42;;;;;;;;;;4959970;28;20628;-92
2022/03/21 14:41:56;;;;;;;28.88;17.33;;;;;;;;;;4960276;28;20038;-91
2022/03/21 14:44:23;;;;;;;24.67;16.05;;;;;;;;;;4960067;28;20053;-91
2022/03/21 14:46:50;;;;;;;25.10;16.48;;;;;;;;;;4960311;28;20050;-92
2022/03/21 14:49:16;;;;;;;29.52;17.98;;;;;;;;;;4975871;28;20051;-90
2022/03/21 14:51:43;;;;;;;29.10;17.15;;;;;;;;;;4960839;28;20050;-90
2022/03/21 14:54:09;;;;;;;30.25;16.70;;;;;;;;;;4959806;28;20402;-91
2022/03/21 14:56:35;;;;;;;28.15;17.08;;;;;;;;;;4960387;28;20042;-91
2022/03/21 14:59:01;;;;;;;24.10;17.13;;;;;;;;;;4976002;28;20043;-92
2022/03/21 15:01:27;;;;;;;26.40;16.33;;;;;;;;;;4959990;28;20126;-91
2022/03/21 15:03:56;;;;;;;29.05;17.17;;;;;;;;;;4975999;28;20081;-91
2022/03/21 15:06:22;;;;;;;25.67;16.05;;;;;;;;;;4975622;28;20501;-93
2022/03/21 15:08:50;;;;;;;31.10;17.05;;;;;;;;;;4959504;28;20046;-92
2022/03/21 15:11:16;;;;;;;26.48;16.85;;;;;;;;;;4959820;28;20112;-90
2022/03/21 15:13:44;;;;;;;24.95;16.10;;;;;;;;;;4975473;28;20050;-90
2022/03/21 15:16:10;;;;;;;29.88;17.00;;;;;;;;;;4959673;28;20039;-91
2022/03/21 15:18:37;;;;;;;25.25;16.48;;;;;;;;;;4960099;28;20114;-92
2022/03/21 15:21:03;;;;;;;28.42;17.58;;;;;;;;;;4959698;28;20085;-91
2022/03/21 15:23:32;;;;;;;28.02;17.77;;;;;;;;;;4958257;28;20050;-92
2022/03/21 15:26:00;;;;;;;27.27;17.05;;;;;;;;;;4958869;28;20113;-92
2022/03/21 15:28:26;;;;;;;27.20;17.98;;;;;;;;;;4962177;28;20046;-91
2022/03/21 15:30:54;;;;;;;28.60;17.42;;;;;;;;;;4979151;28;20054;-90
2022/03/21 15:33:22;;;;;;;30.60;18.77;;;;;;;;;;4962283;28;20054;-95
2022/03/21 15:35:48;;;;;;;28.85;16.70;;;;;;;;;;4962398;28;20097;-92
2022/03/21 15:43:46;;;;;;;27.83;17.00;;;;;;;;;;4978396;28;20151;-93
2022/03/21 15:46:12;;;;;;;28.77;17.08;;;;;;;;;;4961832;28;20057;-91
2022/03/21 15:48:39;;;;;;;28.25;16.77;;;;;;;;;;4952614;28;20057;-92
2022/03/21 15:51:05;;;;;;;27.20;18.73;;;;;;;;;;4962567;28;20058;-91
2022/03/21 15:53:34;;;;;;;33.33;20.00;;;;;;;;;;4978165;28;20043;-92
2022/03/21 15:56:00;;;;;;;30.02;18.85;;;;;;;;;;4978407;28;20125;-91
2022/03/21 15:58:26;;;;;;;31.30;19.77;;;;;;;;;;4962202;28;20038;-90
2022/03/21 16:00:52;;;;;;;31.60;19.98;;;;;;;;;;4961961;28;20038;-94
2022/03/21 16:03:19;;;;;;;31.33;20.10;;;;;;;;;;4992015;28;20057;-92
2022/03/21 16:05:45;;;;;;;34.33;19.48;;;;;;;;;;4977853;28;20436;-89
2022/03/21 16:08:11;;;;;;;30.73;20.05;;;;;;;;;;4979241;28;20054;-90
2022/03/21 16:10:37;;;;;;;28.23;19.52;;;;;;;;;;4962222;28;20507;-91
2022/03/21 16:13:03;;;;;;;33.30;19.35;;;;;;;;;;4978126;28;20050;-92
2022/03/21 16:15:36;;;;;;;28.65;19.95;;;;;;;;;;4978158;28;20038;-93
2022/03/21 16:18:41;;;;;;;33.70;20.40;;;;;;;;;;4962661;28;20042;-93
2022/03/21 16:21:09;;;;;;;30.92;19.67;;;;;;;;;;4968034;28;20054;-90
2022/03/21 16:23:36;;;;;;;30.90;20.27;;;;;;;;;;4979266;28;20050;-93
2022/03/21 16:26:02;;;;;;;32.67;20.83;;;;;;;;;;4979894;28;20507;-92
2022/03/21 16:28:30;;;;;;;37.38;20.40;;;;;;;;;;4961714;28;20058;-93
2022/03/21 16:30:56;;;;;;;32.28;19.65;;;;;;;;;;4978595;28;20301;-93
2022/03/21 16:33:25;;;;;;;29.17;19.48;;;;;;;;;;4962432;28;20174;-94
2022/03/21 16:35:51;;;;;;;31.50;19.83;;;;;;;;;;4982408;28;20050;-92
2022/03/21 16:38:19;;;;;;;31.25;20.23;;;;;;;;;;4997924;28;20057;-92
2022/03/21 16:40:46;;;;;;;31.20;19.77;;;;;;;;;;4983041;28;20405;-93
2022/03/21 16:43:14;;;;;;;34.10;21.15;;;;;;;;;;4978339;28;20128;-92
2022/03/21 16:45:53;;;;;;;34.70;21.98;;;;;;;;;;4978001;28;20100;-95
2022/03/21 16:48:36;;;;;;;29.40;19.55;;;;;;;;;;4962243;28;20042;-93
2022/03/21 16:51:02;;;;;;;34.90;20.80;;;;;;;;;;4978848;28;20050;-93
2022/03/21 16:53:31;;;;;;;32.30;19.98;;;;;;;;;;4978341;28;20065;-93
2022/03/21 16:55:59;;;;;;;29.95;20.27;;;;;;;;;;4962508;28;20093;-93
2022/03/21 16:58:26;;;;;;;27.50;19.58;;;;;;;;;;4961706;28;20084;-91
2022/03/21 17:00:59;;;;;;;33.30;20.05;;;;;;;;;;4961442;28;20046;-92
2022/03/21 17:03:27;;;;;;;32.08;20.65;;;;;;;;;;4978313;28;20123;-93
2022/03/21 17:05:53;;;;;;;31.38;18.70;;;;;;;;;;4977207;28;20437;-92
2022/03/21 17:08:23;;;;;;;31.38;19.35;;;;;;;;;;4977534;28;20049;-92
2022/03/21 17:10:51;;;;;;;33.97;18.92;;;;;;;;;;4961198;28;20042;-92
2022/03/21 17:13:17;;;;;;;29.88;20.48;;;;;;;;;;4977689;28;20053;-90
2022/03/21 17:15:43;;;;;;;31.98;19.75;;;;;;;;;;4977132;28;20108;-91
2022/03/21 17:23:39;;;;;;;33.25;21.08;;;;;;;;;;4973826;28;20097;-91
2022/03/21 17:26:06;;;;;;;30.30;19.65;;;;;;;;;;4976928;28;20038;-91
2022/03/21 17:28:32;;;;;;;30.75;20.40;;;;;;;;;;4960516;28;20050;-89
2022/03/21 17:30:58;;;;;;;29.17;18.83;;;;;;;;;;4962722;28;20516;-89
2022/03/21 17:33:24;;;;;;;33.38;20.67;;;;;;;;;;4962356;28;20306;-92
2022/03/21 17:35:51;;;;;;;29.58;19.58;;;;;;;;;;4977131;28;20038;-92
2022/03/21 17:38:17;;;;;;;32.53;20.17;;;;;;;;;;4958261;28;20042;-92
2022/03/21 17:40:44;;;;;;;35.55;20.92;;;;;;;;;;4961096;28;20038;-90
2022/03/21 17:43:11;;;;;;;34.95;21.23;;;;;;;;;;4977333;28;20132;-92
2022/03/21 17:45:40;;;;;;;30.55;19.67;;;;;;;;;;4976712;28;20404;-91
2022/03/21 17:48:06;;;;;;;32.45;20.98;;;;;;;;;;4978850;28;20042;-91
2022/03/21 17:50:32;;;;;;;33.03;20.55;;;;;;;;;;4963959;28;20129;-91
2022/03/21 17:52:59;;;;;;;36.08;21.40;;;;;;;;;;4964982;28;20046;-93
2022/03/21 17:55:26;;;;;;;31.27;21.15;;;;;;;;;;4981581;28;20038;-90
2022/03/21 17:57:53;;;;;;;33.47;20.75;;;;;;;;;;4966180;28;20080;-93
2022/03/21 18:00:20;;;;;;;32.17;20.65;;;;;;;;;;4966537;28;20458;-93
2022/03/21 18:02:46;;;;;;;34.60;20.92;;;;;;;;;;4969124;28;20042;-93
2022/03/21 18:05:13;;;;;;;32.33;20.95;;;;;;;;;;4966201;28;20136;-90
2022/03/21 18:07:39;;;;;;;31.73;20.13;;;;;;;;;;4981626;28;20072;-90
2022/03/21 18:10:07;;;;;;;39.17;21.30;;;;;;;;;;4965347;28;20042;-91
2022/03/21 18:12:33;;;;;;;34.22;20.92;;;;;;;;;;4965463;28;20403;-90
2022/03/21 18:14:59;;;;;;;33.28;20.83;;;;;;;;;;4981785;28;20049;-90
2022/03/21 18:17:30;;;;;;;38.28;20.70;;;;;;;;;;4966826;28;20042;-90
2022/03/21 18:19:58;;;;;;;33.42;20.40;;;;;;;;;;4966512;28;20069;-92
2022/03/21 18:22:27;;;;;;;34.22;23.05;;;;;;;;;;4981248;28;20325;-93
2022/03/21 18:24:58;;;;;;;33.75;20.77;;;;;;;;;;4964821;28;20405;-92
2022/03/21 18:27:27;;;;;;;35.30;21.08;;;;;;;;;;4980085;28;20039;-92
2022/03/21 18:29:53;;;;;;;30.60;19.73;;;;;;;;;;4961137;28;20059;-91
2022/03/21 18:32:19;;;;;;;32.28;20.38;;;;;;;;;;4960639;28;20494;-93
2022/03/21 18:34:47;;;;;;;31.98;20.65;;;;;;;;;;4961800;28;20050;-94
2022/03/21 18:37:13;;;;;;;34.47;19.65;;;;;;;;;;4976817;28;20094;-91
2022/03/21 18:39:42;;;;;;;37.05;20.80;;;;;;;;;;4961769;28;20042;-93
2022/03/21 18:42:14;;;;;;;35.28;23.20;;;;;;;;;;4961733;28;20058;-90
2022/03/21 18:44:50;;;;;;;38.05;23.23;;;;;;;;;;4977914;28;20042;-89
2022/03/21 18:47:19;;;;;;;38.50;22.35;;;;;;;;;;4961192;28;20039;-92
2022/03/21 18:49:48;;;;;;;29.63;21.45;;;;;;;;;;4963684;28;20046;-93
2022/03/21 18:52:17;;;;;;;33.05;20.77;;;;;;;;;;4977933;28;20047;-93
2022/03/21 18:54:43;;;;;;;31.17;20.98;;;;;;;;;;4978062;28;20101;-90
2022/03/21 18:57:10;;;;;;;31.73;22.27;;;;;;;;;;4976766;28;20121;-92
2022/03/21 18:59:36;;;;;;;35.15;21.33;;;;;;;;;;4961111;28;20043;-90
2022/03/21 19:02:03;;;;;;;31.13;20.85;;;;;;;;;;4977072;28;20042;-91
2022/03/21 19:04:32;;;;;;;33.28;21.75;;;;;;;;;;4960876;28;20043;-90
2022/03/21 19:07:00;;;;;;;33.10;21.02;;;;;;;;;;4959714;28;20137;-90
2022/03/21 19:09:26;;;;;;;28.48;20.67;;;;;;;;;;4960968;28;20081;-90
2022/03/21 19:11:53;;;;;;;29.15;21.13;;;;;;;;;;4975142;28;20074;-91
2022/03/21 19:14:21;;;;;;;31.67;21.45;;;;;;;;;;4976680;28;20195;-91
2022/03/21 19:16:50;;;;;;;31.63;22.05;;;;;;;;;;4960534;28;20080;-90
2022/03/21 19:19:17;;;;;;;32.42;22.00;;;;;;;;;;4976616;28;20061;-89
2022/03/21 19:21:44;;;;;;;34.10;21.77;;;;;;;;;;4960053;28;20050;-91
2022/03/21 19:24:10;;;;;;;34.83;21.00;;;;;;;;;;4960139;28;20093;-89
2022/03/21 19:26:36;;;;;;;32.70;21.38;;;;;;;;;;4976320;28;20050;-87
2022/03/21 19:29:03;;;;;;;34.13;21.98;;;;;;;;;;4979202;28;20114;-90
2022/03/21 19:31:34;;;;;;;31.35;21.13;;;;;;;;;;4962878;28;20100;-93
2022/03/21 19:34:03;;;;;;;30.67;21.80;;;;;;;;;;4981340;28;20482;-93
2022/03/21 19:36:42;;;;;;;30.77;20.58;;;;;;;;;;4999302;28;20069;-89
2022/03/21 19:39:10;;;;;;;34.65;22.77;;;;;;;;;;4965070;28;20485;-90
2022/03/21 19:41:39;;;;;;;34.30;22.27;;;;;;;;;;4978970;28;20042;-92
2022/03/21 19:44:08;;;;;;;34.03;22.25;;;;;;;;;;4980026;28;20076;-93
2022/03/21 19:46:37;;;;;;;32.90;22.92;;;;;;;;;;4964249;28;20092;-90
2022/03/21 19:49:06;;;;;;;31.63;21.52;;;;;;;;;;4979263;28;20046;-92
2022/03/21 19:51:34;;;;;;;33.20;21.90;;;;;;;;;;4978394;28;20046;-92
2022/03/21 19:54:00;;;;;;;32.40;23.20;;;;;;;;;;4962347;28;20478;-92
2022/03/21 19:56:26;;;;;;;33.28;23.27;;;;;;;;;;4962198;28;20426;-91
2022/03/21 19:58:55;;;;;;;35.70;23.67;;;;;;;;;;4979455;28;20048;-92
2022/03/21 20:01:22;;;;;;;34.50;23.90;;;;;;;;;;4978532;28;20081;-92
2022/03/21 20:03:48;;;;;;;37.88;24.17;;;;;;;;;;4979339;28;20481;-92
2022/03/21 20:06:14;;;;;;;37.38;23.20;;;;;;;;;;4978480;28;20097;-93
2022/03/21 20:08:45;;;;;;;35.72;22.52;;;;;;;;;;4979298;28;20046;-92
2022/03/21 20:11:14;;;;;;;32.80;21.63;;;;;;;;;;4962583;28;20121;-92
2022/03/21 20:13:40;;;;;;;34.10;22.45;;;;;;;;;;4978496;28;20039;-93
2022/03/21 20:16:10;;;;;;;30.85;22.70;;;;;;;;;;4963659;28;20117;-94
2022/03/21 20:18:48;;;;;;;33.47;21.40;;;;;;;;;;4974508;28;20042;-93
2022/03/21 20:21:17;;;;;;;32.13;22.52;;;;;;;;;;4995413;28;20105;-92
2022/03/21 20:23:46;;;;;;;29.38;22.40;;;;;;;;;;4979974;28;20038;-92
2022/03/21 20:26:14;;;;;;;36.67;23.17;;;;;;;;;;4989879;28;20053;-91
2022/03/21 20:28:40;;;;;;;33.95;23.13;;;;;;;;;;5004602;28;20141;-92
2022/03/21 20:31:10;;;;;;;32.17;21.88;;;;;;;;;;4991412;28;20503;-91
2022/03/21 20:33:38;;;;;;;33.42;22.42;;;;;;;;;;4987610;28;20057;-93
2022/03/21 20:36:07;;;;;;;33.83;23.02;;;;;;;;;;4984655;28;20038;-91
2022/03/21 20:38:35;;;;;;;34.42;23.98;;;;;;;;;;4970376;28;20042;-92
2022/03/21 20:41:03;;;;;;;33.95;22.95;;;;;;;;;;4981486;28;20049;-95
2022/03/21 20:43:29;;;;;;;32.40;23.80;;;;;;;;;;4965547;28;20079;-94
2022/03/21 20:45:56;;;;;;;32.70;23.58;;;;;;;;;;4968884;28;20504;-93
2022/03/21 20:48:33;;;;;;;34.50;24.40;;;;;;;;;;4965720;28;20085;-95
2022/03/21 20:51:03;;;;;;;37.58;23.95;;;;;;;;;;4970753;28;20042;-91
2022/03/21 20:53:45;;;;;;;36.90;25.02;;;;;;;;;;4991396;28;20050;-91
2022/03/21 20:56:21;;;;;;;;;;;;;;;;;;;;;
2022/03/21 20:58:47;;;;;;;36.25;25.23;;;;;;;;;;4984100;28;20047;-94
2022/03/21 21:01:15;;;;;;;36.28;24.45;;;;;;;;;;5007477;28;20073;-92
2022/03/21 21:03:45;;;;;;;37.13;24.33;;;;;;;;;;4987388;28;20050;-93
2022/03/21 21:06:14;;;;;;;36.35;24.88;;;;;;;;;;4986604;28;20046;-91
2022/03/21 21:08:40;;;;;;;35.15;25.42;;;;;;;;;;4982130;28;20482;-92
2022/03/21 21:11:06;;;;;;;40.10;25.60;;;;;;;;;;4986722;28;20056;-92
2022/03/21 21:13:34;;;;;;;37.92;25.05;;;;;;;;;;4984412;28;20100;-92
2022/03/21 21:16:00;;;;;;;37.55;26.35;;;;;;;;;;4968206;28;20038;-94
2022/03/21 21:18:35;;;;;;;37.50;26.88;;;;;;;;;;4969687;28;20477;-93
2022/03/21 21:21:03;;;;;;;37.25;26.85;;;;;;;;;;4983938;28;20053;-92
2022/03/21 21:23:33;;;;;;;37.65;26.83;;;;;;;;;;4963979;28;20053;-93
2022/03/21 21:25:59;;;;;;;37.85;26.08;;;;;;;;;;4985559;28;20105;-93
2022/03/21 21:28:27;;;;;;;39.42;26.90;;;;;;;;;;4990395;28;20046;-93
2022/03/21 21:30:54;;;;;;;45.65;26.63;;;;;;;;;;4970137;28;20042;-93
2022/03/21 21:33:24;;;;;;;39.25;25.45;;;;;;;;;;4984929;28;20046;-92
2022/03/21 21:35:50;;;;;;;34.35;25.30;;;;;;;;;;4985695;28;20038;-93
2022/03/21 21:38:21;;;;;;;37.75;27.23;;;;;;;;;;5000172;28;20366;-93
2022/03/21 21:40:50;;;;;;;40.10;26.27;;;;;;;;;;4967763;28;20041;-93
2022/03/21 21:43:16;;;;;;;35.97;25.92;;;;;;;;;;4987630;28;20053;-91
2022/03/21 21:45:47;;;;;;;36.97;26.60;;;;;;;;;;4993607;28;20505;-93
2022/03/21 21:48:16;;;;;;;41.75;27.40;;;;;;;;;;4993815;28;20053;-92
2022/03/21 21:50:52;;;;;;;40.80;28.30;;;;;;;;;;4978038;28;20061;-94
2022/03/21 21:53:23;;;;;;;37.88;27.15;;;;;;;;;;4977921;28;20034;-93
2022/03/21 21:55:52;;;;;;;41.55;27.80;;;;;;;;;;4993117;28;20035;-92
2022/03/21 21:58:18;;;;;;;40.15;26.98;;;;;;;;;;4991235;28;20093;-92
2022/03/21 22:00:44;;;;;;;40.78;28.60;;;;;;;;;;4992364;28;20038;-93
2022/03/21 22:03:10;;;;;;;42.53;28.42;;;;;;;;;;4991219;28;20042;-92
2022/03/21 22:05:39;;;;;;;37.38;26.63;;;;;;;;;;4984740;28;20042;-93
2022/03/21 22:08:09;;;;;;;40.05;28.10;;;;;;;;;;4966353;28;20077;-94
2022/03/21 22:10:38;;;;;;;43.53;29.45;;;;;;;;;;4969313;28;20121;-93
2022/03/21 22:13:05;;;;;;;39.55;28.23;;;;;;;;;;4967126;28;20121;-92
2022/03/21 22:15:32;;;;;;;37.58;26.35;;;;;;;;;;4987344;28;20042;-93
2022/03/21 22:17:58;;;;;;;37.47;27.10;;;;;;;;;;4986281;28;20089;-94
2022/03/21 22:20:24;;;;;;;40.63;28.10;;;;;;;;;;5000687;28;20050;-92
2022/03/21 22:22:53;;;;;;;42.33;30.10;;;;;;;;;;4979343;28;20041;-92
2022/03/21 22:25:25;;;;;;;40.67;29.40;;;;;;;;;;4987424;28;20034;-93
2022/03/21 22:27:51;;;;;;;40.60;28.95;;;;;;;;;;4988437;28;20053;-94
2022/03/21 22:30:22;;;;;;;37.33;28.08;;;;;;;;;;4980597;28;20130;-91
2022/03/21 22:32:48;;;;;;;41.45;28.60;;;;;;;;;;4986061;28;20126;-93
2022/03/21 22:35:14;;;;;;;40.63;29.02;;;;;;;;;;4980092;28;20055;-94
2022/03/21 22:37:41;;;;;;;39.25;28.05;;;;;;;;;;4983314;28;20043;-93
2022/03/21 22:48:24;;;;;;;41.95;30.13;;;;;;;;;;4977601;28;20047;-92
2022/03/21 22:50:51;;;;;;;41.50;29.42;;;;;;;;;;4978143;28;20039;-92
2022/03/21 22:53:20;;;;;;;41.80;29.38;;;;;;;;;;4962361;28;20482;-92
2022/03/21 22:55:46;;;;;;;41.53;29.48;;;;;;;;;;4978160;28;20049;-93
2022/03/21 22:58:14;;;;;;;39.75;29.85;;;;;;;;;;4978140;28;20038;-93
2022/03/21 23:00:46;;;;;;;45.78;30.88;;;;;;;;;;4983539;28;20043;-91
2022/03/21 23:03:15;;;;;;;43.35;30.50;;;;;;;;;;4971639;28;20058;-92